createdAt,value
2023-03-24T00:02:46.505Z,99993.63
2023-03-24T00:05:58.436Z,99987.28
2023-03-24T00:09:07.549Z,99978.53
2023-03-24T00:12:11.977Z,99975.19
2023-03-24T00:15:20.237Z,99963.41
2023-03-24T00:18:26.555Z,99957.94
2023-03-24T00:21:29.543Z,99950.97
2023-03-24T00:24:33.554Z,99963.16
2023-03-24T00:27:37.199Z,99958.78
2023-03-24T00:30:43.052Z,99947.91
2023-03-24T00:33:50.829Z,99954.06
2023-03-24T00:36:54.287Z,99949.22
2023-03-24T00:39:57.325Z,99950.88
2023-03-24T00:43:01.753Z,99944.97
2023-03-24T00:46:11.029Z,99933.97
2023-03-24T00:49:15.721Z,99941.88
2023-03-24T00:52:21.969Z,99934.81
2023-03-24T00:55:28.754Z,99931.47
2023-03-24T00:58:34.351Z,99931.75
2023-03-24T01:01:41.252Z,99921.34
2023-03-24T01:04:47.264Z,99916.63
2023-03-24T01:07:52.491Z,99920.63
2023-03-24T01:11:01.205Z,99921.34
2023-03-24T01:14:09.749Z,99917.19
2023-03-24T01:17:14.503Z,99918.28
2023-03-24T01:20:18.303Z,99901.25
2023-03-24T01:23:24.023Z,99891.44
2023-03-24T01:26:27.260Z,99881.63
2023-03-24T01:29:30.368Z,99875.81
2023-03-24T01:32:35.544Z,99868.47
2023-03-24T01:35:44.577Z,99868.13
2023-03-24T01:38:47.629Z,99861.50
2023-03-24T01:41:50.671Z,99860.31
2023-03-24T01:45:03.172Z,99855.97
2023-03-24T01:48:12.194Z,99848.19
2023-03-24T01:51:21.082Z,99828.44
2023-03-24T01:54:29.457Z,99833.41
2023-03-24T01:57:40.990Z,99827.72
2023-03-24T02:00:44.649Z,99828.66
2023-03-24T02:04:12.850Z,99827.13
2023-03-24T02:07:26.677Z,99820.88
2023-03-24T02:10:33.922Z,99808.56
2023-03-24T02:13:37.269Z,99803.13
2023-03-24T02:17:00.211Z,99798.59
2023-03-24T02:20:47.285Z,99789.56
2023-03-24T02:24:43.341Z,99792.34
2023-03-24T02:28:14.464Z,99777.44
2023-03-24T02:31:58.763Z,99766.63
2023-03-24T02:36:10.986Z,99769.31
2023-03-24T02:39:41.693Z,99767.03
2023-03-24T02:43:01.454Z,99766.13
2023-03-24T02:46:14.675Z,99757.22
2023-03-24T02:49:30.151Z,99757.25
2023-03-24T02:52:40.604Z,99759.47
2023-03-24T02:55:53.730Z,99761.00
2023-03-24T02:59:03.343Z,99760.16
2023-03-24T03:02:14.225Z,99756.06
2023-03-24T03:05:28.160Z,99753.19
2023-03-24T03:08:35.270Z,99743.44
2023-03-24T03:11:42.302Z,99740.53
2023-03-24T03:14:50.264Z,99733.44
2023-03-24T03:18:02.819Z,99730.84
2023-03-24T03:21:12.066Z,99723.72
2023-03-24T03:24:20.268Z,99721.94
2023-03-24T03:27:29.396Z,99711.25
2023-03-24T03:30:38.581Z,99714.53
2023-03-24T03:33:46.757Z,99714.53
2023-03-24T03:36:56.371Z,99701.66
2023-03-24T03:40:03.818Z,99694.13
2023-03-24T03:43:09.114Z,99697.56
2023-03-24T03:46:12.551Z,99693.16
2023-03-24T03:49:16.149Z,99686.91
2023-03-24T03:52:20.168Z,99681.69
2023-03-24T03:55:25.672Z,99673.75
2023-03-24T03:58:29.949Z,99677.97
2023-03-24T04:01:37.702Z,99665.69
2023-03-24T04:05:20.800Z,99668.00
2023-03-24T04:08:45.860Z,99668.97
2023-03-24T04:12:16.452Z,99659.22
2023-03-24T04:15:48.792Z,99652.81
2023-03-24T04:19:34.809Z,99644.44
2023-03-24T04:23:00.545Z,99640.75
2023-03-24T04:26:17.820Z,99632.25
2023-03-24T04:29:36.891Z,99632.25
2023-03-24T04:32:49.636Z,99627.88
2023-03-24T04:36:07.141Z,99624.16
2023-03-24T04:39:28.985Z,99613.50
2023-03-24T04:42:38.056Z,99604.72
2023-03-24T04:45:41.931Z,99597.59
2023-03-24T04:48:57.755Z,99594.72
2023-03-24T04:52:10.801Z,99601.41
2023-03-24T04:55:49.070Z,99603.22
2023-03-24T04:58:56.563Z,99597.03
2023-03-24T05:01:59.809Z,99593.78
2023-03-24T05:05:13.107Z,99587.19
2023-03-24T05:08:23.828Z,99583.47
2023-03-24T05:11:29.889Z,99577.28
2023-03-24T05:14:42.297Z,99576.22
2023-03-24T05:17:45.459Z,99564.16
2023-03-24T05:20:49.830Z,99569.38
2023-03-24T05:23:56.458Z,99577.59
2023-03-24T05:27:00.953Z,99579.50
2023-03-24T05:30:08.407Z,99570.44
2023-03-24T05:33:13.662Z,99574.03
2023-03-24T05:36:18.287Z,99569.63
2023-03-24T05:39:37.618Z,99572.66
2023-03-24T05:42:44.642Z,99565.50
2023-03-24T05:45:50.115Z,99579.75
2023-03-24T05:49:03.403Z,99569.84
2023-03-24T05:52:25.740Z,99560.53
2023-03-24T05:55:40.284Z,99553.91
2023-03-24T05:58:59.374Z,99560.47
2023-03-24T06:02:23.142Z,99564.28
2023-03-24T06:05:32.047Z,99559.34
2023-03-24T06:08:39.572Z,99546.56
2023-03-24T06:11:42.674Z,99547.22
2023-03-24T06:14:49.792Z,99541.88
2023-03-24T06:17:54.742Z,99541.44
2023-03-24T06:21:09.855Z,99533.06
2023-03-24T06:24:17.731Z,99537.03
2023-03-24T06:27:34.711Z,99537.56
2023-03-24T06:30:40.499Z,99527.38
2023-03-24T06:33:43.766Z,99530.50
2023-03-24T06:36:47.138Z,99539.53
2023-03-24T06:39:58.567Z,99526.06
2023-03-24T06:43:08.481Z,99530.69
2023-03-24T06:46:23.699Z,99533.16
2023-03-24T06:49:26.928Z,99535.47
2023-03-24T06:52:29.930Z,99532.72
2023-03-24T06:55:34.652Z,99539.28
2023-03-24T06:58:38.078Z,99536.22
2023-03-24T07:01:43.441Z,99524.66
2023-03-24T07:04:58.824Z,99524.88
2023-03-24T07:08:36.688Z,99522.38
2023-03-24T07:11:41.401Z,99519.28
2023-03-24T07:14:46.216Z,99504.97
2023-03-24T07:17:49.373Z,99514.53
2023-03-24T07:21:01.548Z,99504.56
2023-03-24T07:24:05.914Z,99505.91
2023-03-24T07:27:24.249Z,99499.59
2023-03-24T07:30:39.369Z,99499.78
2023-03-24T07:33:50.680Z,99494.47
2023-03-24T07:36:54.408Z,99491.63
2023-03-24T07:39:57.631Z,99492.03
2023-03-24T07:43:09.099Z,99487.09
2023-03-24T07:46:50.607Z,99493.84
2023-03-24T07:49:53.711Z,99501.06
2023-03-24T07:54:50.747Z,99508.44
2023-03-24T07:58:14.518Z,99516.94
2023-03-24T08:01:36.783Z,99502.16
2023-03-24T08:04:43.281Z,99521.09
2023-03-24T08:08:02.349Z,99522.38
2023-03-24T08:11:06.043Z,99504.84
2023-03-24T08:14:10.642Z,99504.81
2023-03-24T08:17:13.621Z,99499.88
2023-03-24T08:20:21.214Z,99506.22
2023-03-24T08:23:24.966Z,99492.78
2023-03-24T08:26:35.045Z,99494.44
2023-03-24T08:29:39.631Z,99498.47
2023-03-24T08:32:45.425Z,99495.19
2023-03-24T08:35:48.808Z,99501.72
2023-03-24T08:38:54.464Z,99492.53
2023-03-24T08:41:57.399Z,99493.19
2023-03-24T08:45:01.706Z,99481.09
2023-03-24T08:48:08.101Z,99483.41
2023-03-24T08:51:13.326Z,99491.25
2023-03-24T08:54:16.627Z,99495.94
2023-03-24T08:57:25.535Z,99485.34
2023-03-24T09:00:30.550Z,99492.06
2023-03-24T09:03:33.560Z,99496.03
2023-03-24T09:06:36.665Z,99496.88
2023-03-24T09:09:40.142Z,99502.50
2023-03-24T09:12:45.316Z,99505.47
2023-03-24T09:15:51.350Z,99514.66
2023-03-24T09:18:54.849Z,99514.34
2023-03-24T09:21:57.831Z,99514.34
2023-03-24T09:25:00.935Z,99516.28
2023-03-24T09:28:04.635Z,99520.53
2023-03-24T09:31:09.375Z,99521.06
2023-03-24T09:34:12.742Z,99531.81
2023-03-24T09:37:16.576Z,99528.75
2023-03-24T09:40:23.437Z,99534.16
2023-03-24T09:43:34.799Z,99530.47
2023-03-24T09:46:46.206Z,99532.88
2023-03-24T09:49:50.423Z,99535.63
2023-03-24T09:52:57.667Z,99539.56
2023-03-24T09:56:08.068Z,99536.34
2023-03-24T09:59:19.067Z,99538.22
2023-03-24T10:02:25.631Z,99547.72
2023-03-24T10:05:36.712Z,99550.34
2023-03-24T10:08:45.417Z,99557.06
2023-03-24T10:11:59.764Z,99564.59
2023-03-24T10:15:31.035Z,99566.22
2023-03-24T10:18:53.080Z,99565.25
2023-03-24T10:22:03.124Z,99556.41
2023-03-24T10:25:19.130Z,99561.81
2023-03-24T10:28:28.433Z,99565.78
2023-03-24T10:31:34.704Z,99573.78
2023-03-24T10:34:40.782Z,99561.31
2023-03-24T10:37:43.787Z,99562.66
2023-03-24T10:40:48.573Z,99552.47
2023-03-24T10:43:54.222Z,99566.53
2023-03-24T10:47:00.975Z,99564.38
2023-03-24T10:50:14.223Z,99569.78
2023-03-24T10:53:20.166Z,99570.94
2023-03-24T10:56:40.386Z,99557.19
2023-03-24T10:59:57.232Z,99565.84
2023-03-24T11:03:03.207Z,99575.69
2023-03-24T11:06:08.629Z,99570.44
2023-03-24T11:09:19.791Z,99568.50
2023-03-24T11:12:25.617Z,99587.81
2023-03-24T11:15:30.913Z,99575.69
2023-03-24T11:18:34.439Z,99573.38
2023-03-24T11:21:39.589Z,99583.22
2023-03-24T11:24:43.154Z,99580.53
2023-03-24T11:27:46.801Z,99580.41
2023-03-24T11:30:53.066Z,99586.75
2023-03-24T11:34:00.626Z,99583.13
2023-03-24T11:37:09.929Z,99578.91
2023-03-24T11:40:23.020Z,99567.47
2023-03-24T11:43:28.121Z,99577.00
2023-03-24T11:46:31.225Z,99571.25
2023-03-24T11:49:39.801Z,99568.59
2023-03-24T11:52:49.925Z,99578.34
2023-03-24T11:55:58.247Z,99582.13
2023-03-24T11:59:07.711Z,99599.72
2023-03-24T12:02:25.811Z,99591.53
2023-03-24T12:05:37.684Z,99593.16
2023-03-24T12:08:56.902Z,99589.06
2023-03-24T12:12:18.410Z,99594.97
2023-03-24T12:15:34.788Z,99580.41
2023-03-24T12:18:48.001Z,99573.50
2023-03-24T12:22:03.916Z,99579.09
2023-03-24T12:25:43.398Z,99578.50
2023-03-24T12:28:59.692Z,99578.97
2023-03-24T12:32:19.128Z,99585.03
2023-03-24T12:35:39.683Z,99596.53
2023-03-24T12:39:01.184Z,99608.88
2023-03-24T12:42:18.293Z,99610.03
2023-03-24T12:45:41.333Z,99603.47
2023-03-24T12:48:58.185Z,99597.59
2023-03-24T12:52:20.969Z,99592.34
2023-03-24T12:55:32.421Z,99588.41
2023-03-24T12:58:43.860Z,99583.47
2023-03-24T13:01:54.246Z,99584.16
2023-03-24T13:05:05.653Z,99595.66
2023-03-24T13:08:22.876Z,99600.09
2023-03-24T13:11:36.680Z,99615.03
2023-03-24T13:14:53.194Z,99606.53
2023-03-24T13:18:08.608Z,99598.00
2023-03-24T13:21:15.062Z,99619.31
2023-03-24T13:24:21.838Z,99617.22
2023-03-24T13:27:57.582Z,99625.75
2023-03-24T13:31:04.612Z,99636.31
2023-03-24T13:34:23.221Z,99635.66
2023-03-24T13:37:30.577Z,99606.66
2023-03-24T13:40:39.929Z,99621.50
2023-03-24T13:43:49.894Z,99638.66
2023-03-24T13:47:11.009Z,99671.97
2023-03-24T13:50:16.054Z,99697.50
2023-03-24T13:53:21.800Z,99707.38
2023-03-24T13:56:29.858Z,99698.84
2023-03-24T13:59:34.493Z,99687.13
2023-03-24T14:02:49.712Z,99694.72
2023-03-24T14:06:01.263Z,99693.75
2023-03-24T14:09:07.223Z,99687.84
2023-03-24T14:12:21.775Z,99710.78
2023-03-24T14:15:29.037Z,99720.06
2023-03-24T14:18:43.864Z,99703.81
2023-03-24T14:21:53.991Z,99698.88
2023-03-24T14:25:02.066Z,99695.84
2023-03-24T14:28:21.838Z,99704.94
2023-03-24T14:31:29.988Z,99687.66
2023-03-24T14:34:37.675Z,99650.06
2023-03-24T14:37:55.531Z,99624.97
2023-03-24T14:41:01.385Z,99595.69
2023-03-24T14:44:04.564Z,99581.34
2023-03-24T14:47:11.048Z,99595.28
2023-03-24T14:50:22.152Z,99621.66
2023-03-24T14:53:25.576Z,99619.06
2023-03-24T14:56:37.086Z,99633.66
2023-03-24T14:59:47.639Z,99630.72
2023-03-24T15:02:54.579Z,99633.84
2023-03-24T15:06:18.984Z,99638.81
2023-03-24T15:09:22.125Z,99642.13
2023-03-24T15:12:25.865Z,99650.03
2023-03-24T15:15:29.350Z,99650.63
2023-03-24T15:18:32.762Z,99645.75
2023-03-24T15:21:39.272Z,99645.47
2023-03-24T15:24:44.746Z,99636.50
2023-03-24T15:27:51.286Z,99631.38
2023-03-24T15:30:59.180Z,99638.78
2023-03-24T15:34:26.777Z,99657.59
2023-03-24T15:37:39.997Z,99645.97
2023-03-24T15:40:58.546Z,99649.09
2023-03-24T15:44:01.657Z,99652.91
2023-03-24T15:47:07.333Z,99654.56
2023-03-24T15:50:34.029Z,99647.53
2023-03-24T15:53:51.002Z,99655.88
2023-03-24T15:57:16.119Z,99658.78
2023-03-24T16:00:25.988Z,99664.84
2023-03-24T16:03:37.314Z,99674.81
2023-03-24T16:06:52.927Z,99672.31
2023-03-24T16:10:09.448Z,99666.63
2023-03-24T16:13:17.292Z,99661.38
2023-03-24T16:16:28.873Z,99655.78
2023-03-24T16:19:32.785Z,99660.19
2023-03-24T16:22:35.740Z,99666.84
2023-03-24T16:25:40.291Z,99667.50
2023-03-24T16:28:43.512Z,99672.19
2023-03-24T16:31:49.811Z,99688.03
2023-03-24T16:34:52.815Z,99679.34
2023-03-24T16:37:56.233Z,99685.41
2023-03-24T16:41:00.936Z,99686.50
2023-03-24T16:44:03.892Z,99684.16
2023-03-24T16:47:10.292Z,99692.38
2023-03-24T16:50:29.550Z,99688.66
2023-03-24T16:53:32.547Z,99689.72
2023-03-24T16:56:38.199Z,99700.31
2023-03-24T16:59:41.852Z,99691.97
2023-03-24T17:02:50.477Z,99707.50
2023-03-24T17:05:53.484Z,99717.59
2023-03-24T17:08:56.840Z,99717.09
2023-03-24T17:12:04.453Z,99721.28
2023-03-24T17:15:10.394Z,99714.56
2023-03-24T17:18:13.763Z,99710.75
2023-03-24T17:21:21.734Z,99717.84
2023-03-24T17:24:25.619Z,99721.00
2023-03-24T17:27:33.560Z,99732.75
2023-03-24T17:30:37.609Z,99732.97
2023-03-24T17:33:40.736Z,99742.50
2023-03-24T17:36:43.758Z,99736.38
2023-03-24T17:39:46.724Z,99746.19
2023-03-24T17:42:56.973Z,99752.91
2023-03-24T17:46:09.024Z,99750.59
2023-03-24T17:49:12.162Z,99754.66
2023-03-24T17:52:17.091Z,99757.44
2023-03-24T17:55:21.676Z,99768.47
2023-03-24T17:58:27.685Z,99764.75
2023-03-24T18:01:34.944Z,99771.25
2023-03-24T18:04:38.076Z,99767.81
2023-03-24T18:07:41.454Z,99770.44
2023-03-24T18:10:47.787Z,99771.25
2023-03-24T18:13:53.234Z,99770.75
2023-03-24T18:16:56.291Z,99762.25
2023-03-24T18:20:06.431Z,99748.91
2023-03-24T18:23:09.376Z,99764.41
2023-03-24T18:26:12.365Z,99760.72
2023-03-24T18:29:17.055Z,99769.91
2023-03-24T18:32:23.186Z,99774.53
2023-03-24T18:35:27.892Z,99774.81
2023-03-24T18:38:31.024Z,99777.00
2023-03-24T18:41:37.045Z,99772.97
2023-03-24T18:44:44.869Z,99767.06
2023-03-24T18:47:48.496Z,99764.84
2023-03-24T18:51:08.160Z,99768.91
2023-03-24T18:54:31.227Z,99769.97
2023-03-24T18:57:37.870Z,99768.03
2023-03-24T19:00:43.040Z,99774.88
2023-03-24T19:03:46.728Z,99778.13
2023-03-24T19:06:52.111Z,99782.19
2023-03-24T19:09:56.468Z,99779.72
2023-03-24T19:12:59.415Z,99789.97
2023-03-24T19:16:04.526Z,99787.50
2023-03-24T19:19:09.796Z,99790.19
2023-03-24T19:22:12.746Z,99794.25
2023-03-24T19:25:19.320Z,99809.69
2023-03-24T19:28:22.554Z,99805.44
2023-03-24T19:31:26.864Z,99817.84
2023-03-24T19:34:31.188Z,99835.69
2023-03-24T19:37:34.736Z,99809.13
2023-03-24T19:40:38.324Z,99799.00
2023-03-24T19:43:42.061Z,99801.72
2023-03-24T19:46:46.565Z,99807.09
2023-03-24T19:49:52.100Z,99808.16
2023-03-24T19:52:55.585Z,99809.97
2023-03-24T19:55:59.901Z,99812.94
2023-03-24T19:59:03.192Z,99824.16
2023-03-24T20:02:11.323Z,99834.88
2023-03-24T20:05:16.122Z,99840.94
2023-03-24T20:08:20.245Z,99843.44
2023-03-24T20:11:23.241Z,99820.91
2023-03-24T20:14:26.553Z,99838.34
2023-03-24T20:17:37.229Z,99843.97
2023-03-24T20:20:40.578Z,99843.13
2023-03-24T20:23:44.001Z,99842.41
2023-03-24T20:26:48.758Z,99831.56
2023-03-24T20:29:52.100Z,99825.28
2023-03-24T20:32:57.812Z,99831.72
2023-03-24T20:36:00.840Z,99837.63
2023-03-24T20:39:07.368Z,99838.97
2023-03-24T20:42:10.659Z,99840.50
2023-03-24T20:45:16.072Z,99843.66
2023-03-24T20:48:20.811Z,99835.13
2023-03-24T20:51:24.081Z,99835.13
2023-03-24T20:54:27.085Z,99838.94
2023-03-24T20:57:31.283Z,99850.22
2023-03-24T21:00:34.413Z,99839.75
2023-03-24T21:03:39.015Z,99841.66
2023-03-24T21:06:42.130Z,99847.00
2023-03-24T21:09:45.460Z,99849.56
2023-03-24T21:12:52.349Z,99847.91
2023-03-24T21:15:58.165Z,99849.00
2023-03-24T21:19:03.626Z,99857.19
2023-03-24T21:22:06.617Z,99856.09
2023-03-24T21:25:09.770Z,99858.69
2023-03-24T21:28:12.772Z,99857.97
2023-03-24T21:31:20.063Z,99856.31
2023-03-24T21:34:24.468Z,99859.06
2023-03-24T21:37:30.154Z,99863.63
2023-03-24T21:40:33.545Z,99861.16
2023-03-24T21:43:37.631Z,99858.13
2023-03-24T21:46:42.019Z,99849.34
2023-03-24T21:49:48.850Z,99855.00
2023-03-24T21:52:52.657Z,99852.28
2023-03-24T21:56:04.232Z,99846.75
2023-03-24T21:59:07.205Z,99834.00
2023-03-24T22:02:17.333Z,99841.38
2023-03-24T22:05:24.416Z,99841.44
2023-03-24T22:08:30.752Z,99842.03
2023-03-24T22:11:36.625Z,99850.56
2023-03-24T22:14:40.832Z,99858.47
2023-03-24T22:17:43.867Z,99844.75
2023-03-24T22:20:55.232Z,99841.53
2023-03-24T22:23:58.231Z,99842.03
2023-03-24T22:27:02.102Z,99834.97
2023-03-24T22:30:06.430Z,99844.44
2023-03-24T22:33:09.988Z,99837.28
2023-03-24T22:36:14.349Z,99838.59
2023-03-24T22:39:17.738Z,99842.97
2023-03-24T22:42:21.057Z,99842.50
2023-03-24T22:45:24.358Z,99834.69
2023-03-24T22:48:27.326Z,99830.44
2023-03-24T22:51:33.877Z,99827.94
2023-03-24T22:54:36.810Z,99831.31
2023-03-24T22:57:39.733Z,99821.81
2023-03-24T23:00:44.813Z,99813.94
2023-03-24T23:03:47.813Z,99816.41
2023-03-24T23:06:52.911Z,99811.44
2023-03-24T23:09:59.366Z,99819.03
2023-03-24T23:13:04.100Z,99823.31
2023-03-24T23:16:08.826Z,99833.00
2023-03-24T23:19:14.223Z,99837.00
2023-03-24T23:22:21.686Z,99832.41
2023-03-24T23:25:25.920Z,99830.63
2023-03-24T23:28:28.920Z,99833.03
2023-03-24T23:31:32.350Z,99834.34
2023-03-24T23:34:35.719Z,99831.16
2023-03-24T23:37:40.275Z,99837.41
2023-03-24T23:40:43.243Z,99839.44
2023-03-24T23:43:50.053Z,99835.66
2023-03-24T23:46:52.998Z,99835.88
2023-03-24T23:49:57.032Z,99830.69
2023-03-24T23:53:01.332Z,99827.63
2023-03-24T23:56:08.099Z,99814.66
2023-03-24T23:59:11.825Z,99808.75
